Αρχική σελίδα
METAR-TAF:

METAR-TAF

Αεροδρόμια :

Garden City, Κάνσας, Ηνωμένες Πολιτείες Αμερικής

γεωγραφικό πλάτος: 37-55-39N, γεωγραφικό μήκος: 100-43-28W, υψόμετρο: 881 μ

Παρών καιρός

Η αναφορά έγινε 45 λεπτά πριν, στις 12:54 UTC
Άνεμος 9 kt από Β
Θερμοκρασία -4°C
Υγρασία 68%
Πίεση 1024 hPa
Ορατότητα: 16.1 χλμ
Καθαρός ουρανός

METAR: KGCK 161254Z AUTO 35009KT 10SM CLR M04/M09 A3025 RMK AO2 SLP266 T10441094

Χρόνος: 07:39 (13:39 UTC)

Πρόγνωση Καιρού

Η αναφορά έγινε 2 ώρες και 19 λεπτά πριν, στις 11:20 UTC
Η πρόγνωση ισχύει από τις 16 στις 12 UTC έως τις 17 στις 12 UTC
Άνεμος 7 kt από
Ορατότητα: 10 χλμ
Καθαρός ουρανός

TAF: KGCK 161120Z 1612/1712 32007KT P6SM SKC

Μετεωρολογικές αναφορές και προγνώσεις για περισσότερα από 4000 αεροδρόμια (δελτία METAR και TAF).

Οι διαθέσιμοι σταθμοί απεικονίζονται στο χάρτη με κίτρινες και κόκκινες κουκκίδες.

Μετακινήστε το ποντίκι πάνω από τις κουκκίδες για να δείτε το όνομα του σταθμού.

Στη συνέχεια, κάντε κλικ για να δείτε τις μετεωρολογικές αναφορές και τις προγνώσεις καιρού.

Για να αλλάξετε το χάρτη: κάντε κλικ στα πράσινα κουμπιά με τον μαύρο σταυρό για να ζουμάρετε, στο πράσινο κουμπί με την παύλα για να αφαιρέσετε το ζουμ ή στα πράσινα βέλη για να αντιπαραβάλλετε χάρτες.


METAR-TAF: